Arklow Spray — C6VK8 — position and weather

sailwx.info

Track history (hours):
 
Tides and Currents Weather Stations Pressure Air Temp Water Temp Dewpoint Dewpoint Depression Visibility Wind Speed Wind Dir Waves Ship Positions

Arklow Spray

Last reported at 2017-May-27 10:07 UTC. Time now 2017-May-27 15:47 UTC.
Position N 49°50' W 003°15'.

Length 90 m; draft 4.7 m.

MMSI: 309914000.

Date/timePositionNaut miles runAvg speedWind from/ knotsBaromVisibWave heightAir tempDewpointWater temp
2017-May-27 10:07N 49°50' W 003°15'1 9.3
2017-May-27 10:00N 49°51' W 003°13'5 8.8
2017-May-27 09:28N 49°53' W 003°07'4 8.2
2017-May-27 09:00N 49°55' W 003°02'4 7.7
2017-May-27 08:30N 49°57' W 002°57'11010.7
2017-May-26 22:16N 50°28' W 000°12'2 8.4
2017-May-26 22:00N 50°28' W 000°09'4 8.0
2017-May-26 21:30N 50°29' W 000°03'4 7.7
2017-May-26 20:58N 50°31' E 000°04'4 7.9
2017-May-26 20:30N 50°32' E 000°09'4 8.4
2017-May-26 20:00N 50°33' E 000°15'7 9.3
2017-May-26 19:17N 50°35' E 000°25'310.4
2017-May-26 19:00N 50°37' E 000°30'611.2
2017-May-26 18:30N 50°39' E 000°37'611.9
2017-May-26 18:00N 50°43' E 000°45'612.3
2017-May-26 17:30N 50°46' E 000°53'1711.8
2017-May-26 16:04N 50°57' E 001°14'111.0
2017-May-26 16:00N 50°58' E 001°15'510.6
2017-May-26 15:30N 51°01' E 001°21'5 9.8
2017-May-26 15:00N 51°04' E 001°27'8 8.1
2017-May-26 14:00N 51°09' E 001°37'4 7.1
2017-May-26 13:30N 51°12' E 001°41'4 7.3
2017-May-26 13:00N 51°14' E 001°45'4 7.8
2017-May-26 12:30N 51°18' E 001°48'4 8.5
2017-May-26 12:00N 51°22' E 001°50'5 9.3
2017-May-26 11:30N 51°26' E 001°53'5 9.9
2017-May-26 11:00N 51°31' E 001°56'610.8
2017-May-26 10:29N 51°36' E 002°00'42510.4
2017-May-24 17:47N 58°29' E 004°48'310.0
2017-May-24 17:30N 58°32' E 004°50'510.0
2017-May-24 17:00N 58°36' E 004°54'510.1
2017-May-24 16:30N 58°41' E 004°57'510.1
2017-May-24 16:00N 58°46' E 004°59'510.1
2017-May-24 15:30N 58°51' E 005°02'510.3
2017-May-24 15:00N 58°56' E 005°06'510.2
2017-May-24 14:30N 59°01' E 005°09'10 9.8
2017-May-24 13:30N 59°09' E 005°19'510.5
2017-May-24 13:00N 59°14' E 005°20'5 9.9
2017-May-24 12:30N 59°19' E 005°20'0 0.2
2017-May-24 11:58N 59°19' E 005°19'0 0.0
2017-May-24 11:28N 59°19' E 005°19'0 0.0
2017-May-24 10:58N 59°19' E 005°19'0 0.0
2017-May-24 10:28N 59°19' E 005°19'0 0.0
2017-May-24 09:58N 59°19' E 005°19'0 0.0
2017-May-24 09:28N 59°19' E 005°19'0 0.0
2017-May-24 08:58N 59°19' E 005°19'0 0.0
2017-May-24 08:28N 59°19' E 005°19'0 0.0
2017-May-24 07:58N 59°19' E 005°19'0 0.0
2017-May-24 07:28N 59°19' E 005°19'0 0.0
2017-May-24 06:58N 59°19' E 005°19'0 0.0
2017-May-24 06:28N 59°19' E 005°19'1 1.9
2017-May-24 06:00N 59°18' E 005°20'5 9.8
2017-May-24 05:30N 59°13' E 005°21'2 4.8
2017-May-24 05:00N 59°11' E 005°21'3 5.6
2017-May-24 04:30N 59°08' E 005°21'3 5.8
2017-May-24 04:00N 59°05' E 005°21'3 6.1
2017-May-24 03:30N 59°03' E 005°16'3 7.0
2017-May-24 03:00N 59°04' E 005°10'5 9.4
2017-May-24 02:30N 59°08' E 005°06'5 9.1
2017-May-24 02:00N 59°13' E 005°03'5 9.6
2017-May-24 01:30N 59°17' E 005°01'510.2
2017-May-24 01:00N 59°22' E 004°59'510.5
2017-May-24 00:30N 59°27' E 004°56'510.4
2017-May-24 00:00N 59°33' E 004°54'510.1
2017-May-23 23:30N 59°38' E 004°52'5 9.8
2017-May-23 23:00N 59°42' E 004°49'5 9.9
2017-May-23 22:30N 59°47' E 004°46'5 9.9
2017-May-23 22:00N 59°52' E 004°44'510.0
2017-May-23 21:30N 59°57' E 004°42'510.1
2017-May-23 21:00N 60°02' E 004°40'510.1
2017-May-23 20:30N 60°06' E 004°37'510.0
2017-May-23 20:00N 60°11' E 004°34'5 9.8
2017-May-23 19:30N 60°16' E 004°32'5 9.9
2017-May-23 19:00N 60°21' E 004°30'5 9.7
2017-May-23 18:30N 60°26' E 004°28'5 9.8
2017-May-23 18:00N 60°30' E 004°26'5 9.7
2017-May-23 17:30N 60°35' E 004°25'5 9.5
2017-May-23 17:00N 60°40' E 004°25'5 9.1
2017-May-23 16:30N 60°45' E 004°25'4 8.9
2017-May-23 16:00N 60°49' E 004°24'5 9.0
2017-May-23 15:30N 60°53' E 004°25'5 9.2
2017-May-23 15:00N 60°58' E 004°25'4 9.0
2017-May-23 14:30N 61°03' E 004°25'9 9.3
2017-May-23 13:30N 61°12' E 004°25'5 9.6
2017-May-23 13:00N 61°17' E 004°25'5 9.7
2017-May-23 12:30N 61°22' E 004°25'5 9.8
2017-May-23 12:00N 61°27' E 004°25'510.0
2017-May-23 11:30N 61°32' E 004°25'5 9.8
2017-May-23 11:00N 61°36' E 004°25'510.1
2017-May-23 10:30N 61°41' E 004°25'510.0
2017-May-23 10:00N 61°46' E 004°27'510.5
2017-May-23 09:30N 61°51' E 004°32'510.5
2017-May-23 09:00N 61°56' E 004°37'510.4
2017-May-23 08:30N 62°00' E 004°42'510.7
2017-May-23 08:00N 62°05' E 004°47'510.5
2017-May-23 07:30N 62°10' E 004°52'510.4
2017-May-23 07:00N 62°14' E 004°57'510.3
2017-May-23 06:30N 62°19' E 005°04'510.5
2017-May-23 06:00N 62°23' E 005°11'510.5
2017-May-23 05:30N 62°26' E 005°19'510.6
2017-May-23 05:00N 62°30' E 005°27'510.7
2017-May-23 04:30N 62°34' E 005°35'510.8
2017-May-23 04:00N 62°38' E 005°44'510.6
2017-May-23 03:30N 62°41' E 005°52'510.5
2017-May-23 03:00N 62°45' E 006°00'510.4
2017-May-23 02:30N 62°49' E 006°08'510.3
2017-May-23 02:00N 62°52' E 006°17'510.5
2017-May-23 01:30N 62°55' E 006°26'510.7
2017-May-23 01:00N 62°58' E 006°35'611.0
2017-May-23 00:30N 63°02' E 006°45'510.8
2017-May-23 00:00N 63°05' E 006°54'510.7
2017-May-22 23:30N 63°08' E 007°04'510.6
2017-May-22 23:00N 63°11' E 007°14'510.7
2017-May-22 22:30N 63°13' E 007°25'510.5
2017-May-22 22:00N 63°15' E 007°36'5 9.9
2017-May-22 21:30N 63°12' E 007°45'510.2
2017-May-22 21:00N 63°08' E 007°41'510.7
2017-May-22 20:30N 63°02' E 007°41'510.6
2017-May-22 20:00N 62°58' E 007°48'510.6
2017-May-22 19:30N 62°59' E 007°59'510.3
2017-May-22 19:00N 62°55' E 008°08'510.5
2017-May-22 18:30N 62°50' E 008°10'510.7
2017-May-22 18:00N 62°47' E 008°20'510.8
2017-May-22 17:30N 62°44' E 008°29'3 6.5
2017-May-22 16:59N 62°41' E 008°33'0 0.0
2017-May-22 16:29N 62°41' E 008°33'0 0.0
2017-May-22 15:59N 62°41' E 008°33'0 0.0
2017-May-22 15:29N 62°41' E 008°33'0 0.0
2017-May-22 14:59N 62°41' E 008°33'0 0.0
2017-May-22 13:59N 62°41' E 008°33'0 0.0
2017-May-22 13:29N 62°41' E 008°33'0 0.0
2017-May-22 12:59N 62°41' E 008°33'0 0.0
2017-May-22 12:29N 62°41' E 008°33'0 0.0
2017-May-22 11:59N 62°41' E 008°33'0 0.0
2017-May-22 11:29N 62°41' E 008°33'0 0.0
2017-May-22 10:59N 62°41' E 008°33'0 0.0
2017-May-22 10:29N 62°41' E 008°33'0 0.0
2017-May-22 09:59N 62°41' E 008°33'0 0.0
2017-May-22 09:29N 62°41' E 008°33'0 0.0
2017-May-22 08:59N 62°41' E 008°33'0 0.0
2017-May-22 08:29N 62°41' E 008°33'0 0.0
2017-May-22 07:59N 62°41' E 008°33'0 0.0
2017-May-22 07:29N 62°41' E 008°33'0 0.0
2017-May-22 06:59N 62°41' E 008°33'0 0.0
2017-May-22 06:29N 62°41' E 008°33'0 0.0
2017-May-22 05:59N 62°41' E 008°33'0 0.0
2017-May-22 05:29N 62°41' E 008°33'0 0.0
2017-May-22 04:59N 62°41' E 008°33'0 0.0
2017-May-22 04:29N 62°41' E 008°33'0 0.0
2017-May-22 03:59N 62°41' E 008°33'0 0.0
2017-May-22 03:29N 62°41' E 008°33'0 0.0
2017-May-22 02:59N 62°41' E 008°33'0 0.0
2017-May-22 02:29N 62°41' E 008°33'0 0.0
2017-May-22 01:59N 62°41' E 008°33'0 0.0
2017-May-22 01:29N 62°41' E 008°33'0 0.0
2017-May-22 00:59N 62°41' E 008°33'0 0.0
2017-May-22 00:29N 62°41' E 008°33'0 0.0
2017-May-21 23:59N 62°41' E 008°33'0 0.0
2017-May-21 23:29N 62°41' E 008°33'0 0.0
2017-May-21 22:59N 62°41' E 008°33'0 0.0
2017-May-21 22:29N 62°41' E 008°33'0 0.0
2017-May-21 21:59N 62°41' E 008°33'0 0.0
2017-May-21 21:29N 62°41' E 008°33'0 0.0
2017-May-21 20:59N 62°41' E 008°33'0 0.0
2017-May-21 20:29N 62°41' E 008°33'0 0.0
2017-May-21 19:59N 62°41' E 008°33'0 0.0
2017-May-21 19:26N 62°41' E 008°33'0 0.0
2017-May-21 18:59N 62°41' E 008°33'0 0.0
2017-May-21 18:29N 62°41' E 008°33'0 0.0
2017-May-21 17:59N 62°41' E 008°33'0 0.0
2017-May-21 17:29N 62°41' E 008°33'0 0.0
2017-May-21 16:56N 62°41' E 008°33'0 0.0
2017-May-21 16:29N 62°41' E 008°33'0 0.0
2017-May-21 15:59N 62°41' E 008°33'0 0.0
2017-May-21 15:29N 62°41' E 008°33'0 0.0
2017-May-21 14:56N 62°41' E 008°33'0 0.0
2017-May-21 13:59N 62°41' E 008°33'0 0.0
2017-May-21 13:29N 62°41' E 008°33'0 0.0
2017-May-21 13:00N 62°41' E 008°33'3 5.3
2017-May-21 12:30N 62°43' E 008°30'611.4
2017-May-21 12:00N 62°47' E 008°20'611.2
2017-May-21 11:30N 62°50' E 008°10'611.1
2017-May-21 11:00N 62°55' E 008°08'510.9
2017-May-21 10:30N 62°59' E 007°59'510.7
2017-May-21 10:00N 62°58' E 007°47'3 6.1
2017-May-21 09:30N 63°01' E 007°48'0 0.1
2017-May-21 09:00N 63°01' E 007°48'0 0.0
2017-May-21 08:30N 63°01' E 007°48'0 0.0
2017-May-21 08:00N 63°01' E 007°48'0 0.0
2017-May-21 07:30N 63°01' E 007°48'0 0.0
2017-May-21 07:00N 63°01' E 007°48'0 0.0
2017-May-21 06:30N 63°01' E 007°48'0 0.0
2017-May-21 06:00N 63°01' E 007°48'0 0.0
2017-May-21 05:30N 63°01' E 007°48'0 0.0
2017-May-21 05:00N 63°01' E 007°48'0 0.0
2017-May-21 04:30N 63°01' E 007°48'0 0.0
2017-May-21 04:00N 63°01' E 007°48'0 0.0
2017-May-21 03:30N 63°01' E 007°48'0 0.0
2017-May-21 03:00N 63°01' E 007°48'0 0.0
2017-May-21 02:30N 63°01' E 007°48'0 0.0
2017-May-21 02:00N 63°01' E 007°48'0 0.0
2017-May-21 01:30N 63°01' E 007°48'0 0.0
2017-May-21 01:00N 63°01' E 007°48'0 0.0
2017-May-21 00:30N 63°01' E 007°48'0 0.0
2017-May-21 00:00N 63°01' E 007°48'0 0.0
2017-May-20 23:30N 63°01' E 007°48'0 0.0
2017-May-20 23:00N 63°01' E 007°48'0 0.0
2017-May-20 22:30N 63°01' E 007°48'0 0.0
2017-May-20 22:00N 63°01' E 007°48'0 0.0
2017-May-20 21:30N 63°01' E 007°48'0 0.0
2017-May-20 21:00N 63°01' E 007°48'0 0.0
2017-May-20 20:30N 63°01' E 007°48'0 0.2
2017-May-20 20:00N 63°01' E 007°48'0 0.0
2017-May-20 19:30N 63°01' E 007°48'0 0.0
2017-May-20 19:00N 63°01' E 007°48'0 0.0
2017-May-20 18:30N 63°01' E 007°48'0 0.1
2017-May-20 18:00N 63°01' E 007°48'0 0.0
2017-May-20 17:30N 63°01' E 007°48'0 0.0
2017-May-20 17:00N 63°01' E 007°48'0 0.1
2017-May-20 16:30N 63°01' E 007°48'0 0.0
2017-May-20 16:00N 63°01' E 007°48'0 0.0
2017-May-20 15:30N 63°01' E 007°48'0 0.0
2017-May-20 15:00N 63°01' E 007°48'0 0.0
2017-May-20 14:00N 63°01' E 007°48'0 0.0
2017-May-20 13:29N 63°01' E 007°48'0 0.0
2017-May-20 12:59N 63°01' E 007°48'0 0.0
2017-May-20 12:29N 63°01' E 007°48'0 0.0
2017-May-20 11:59N 63°01' E 007°48'0 0.0
2017-May-20 11:29N 63°01' E 007°48'0 0.0
2017-May-20 10:59N 63°01' E 007°48'0 0.0
2017-May-20 10:29N 63°01' E 007°48'0 0.0
2017-May-20 09:59N 63°01' E 007°48'0 0.0
2017-May-20 09:29N 63°01' E 007°48'0 0.0
2017-May-20 08:59N 63°01' E 007°48'0 0.0
2017-May-20 08:29N 63°01' E 007°48'0 0.0
2017-May-20 07:59N 63°01' E 007°48'0 0.0
2017-May-20 07:29N 63°01' E 007°48'0 0.0
2017-May-20 06:59N 63°01' E 007°48'0 0.0
2017-May-20 06:29N 63°01' E 007°48'0 0.0
2017-May-20 05:59N 63°01' E 007°48'0 0.0
2017-May-20 05:29N 63°01' E 007°48'0 0.0
2017-May-20 04:59N 63°01' E 007°48'0 0.0
2017-May-20 04:29N 63°01' E 007°48'0 0.0
2017-May-20 03:59N 63°01' E 007°48'0 0.0
2017-May-20 03:29N 63°01' E 007°48'0 0.0
2017-May-20 02:59N 63°01' E 007°48'0 0.0
2017-May-20 02:29N 63°01' E 007°48'0 0.0
2017-May-20 01:59N 63°01' E 007°48'0 0.0
2017-May-20 01:29N 63°01' E 007°48'0 0.0
2017-May-20 00:59N 63°01' E 007°48'0 0.0
2017-May-20 00:29N 63°01' E 007°48'0 0.0
2017-May-19 23:59N 63°01' E 007°48'0 0.0
2017-May-19 23:29N 63°01' E 007°48'0 0.0
2017-May-19 22:59N 63°01' E 007°48'0 0.0
2017-May-19 22:29N 63°01' E 007°48'0 0.0
2017-May-19 21:59N 63°01' E 007°48'0 0.0
2017-May-19 21:29N 63°01' E 007°48'0 0.0
2017-May-19 20:59N 63°01' E 007°48'0 0.0
2017-May-19 20:29N 63°01' E 007°48'0 0.0
2017-May-19 19:59N 63°01' E 007°48'0 0.0
2017-May-19 19:29N 63°01' E 007°48'0 0.0
2017-May-19 18:59N 63°01' E 007°48'0 0.0
2017-May-19 18:29N 63°01' E 007°48'0 0.0
2017-May-19 17:59N 63°01' E 007°48'0 0.0
2017-May-19 17:29N 63°01' E 007°48'0 0.0
2017-May-19 16:59N 63°01' E 007°48'0 0.0
2017-May-19 16:29N 63°01' E 007°48'0 0.0
2017-May-19 15:59N 63°01' E 007°48'0 0.0
2017-May-19 15:29N 63°01' E 007°48'0 0.0
2017-May-19 14:59N 63°01' E 007°48'2 1.6
2017-May-19 14:00N 63°02' E 007°51'510.5
2017-May-19 13:30N 63°07' E 007°54'510.9
2017-May-19 13:00N 63°11' E 007°47'510.0
2017-May-19 12:30N 63°14' E 007°39'4 8.0
2017-May-19 12:00N 63°14' E 007°30'2 3.9
2017-May-19 11:30N 63°13' E 007°26'3 6.5
2017-May-19 11:00N 63°12' E 007°20'3 6.8
2017-May-19 10:30N 63°10' E 007°13'4 8.8
2017-May-19 10:00N 63°08' E 007°05'5 9.3
2017-May-19 09:30N 63°06' E 006°55'5 9.3
2017-May-19 09:00N 63°03' E 006°47'510.0
2017-May-19 08:30N 63°01' E 006°37'510.6
2017-May-19 08:00N 62°58' E 006°27'510.7
2017-May-19 07:30N 62°55' E 006°17'510.7
2017-May-19 07:00N 62°52' E 006°09'611.1
2017-May-19 06:30N 62°48' E 006°01'611.1
2017-May-19 06:00N 62°44' E 005°52'511.0
2017-May-19 05:30N 62°40' E 005°44'610.8
2017-May-19 05:00N 62°36' E 005°35'510.9
2017-May-19 04:29N 62°32' E 005°27'511.1
2017-May-19 04:00N 62°28' E 005°19'611.2
2017-May-19 03:30N 62°24' E 005°11'511.2
2017-May-19 03:00N 62°20' E 005°02'610.9
2017-May-19 02:30N 62°16' E 004°54'510.8
2017-May-19 01:59N 62°12' E 004°45'511.1
2017-May-19 01:30N 62°08' E 004°37'510.8
2017-May-19 01:00N 62°04' E 004°29'  
Track history (hours):
 
Tides and Currents Weather Stations Pressure Air Temp Water Temp Dewpoint Dewpoint Depression Visibility Wind Speed Wind Dir Waves Ship Positions

Arklow Spray

Last reported at 2017-May-27 10:07 UTC. Time now 2017-May-27 15:47 UTC.
Position N 49°50' W 003°15'.

Length 90 m; draft 4.7 m.

MMSI: 309914000.

Date/timePositionNaut miles runAvg speedWind from/ knotsBaromVisibWave heightAir tempDewpointWater temp
2017-May-27 10:07N 49°50' W 003°15'1 9.3
2017-May-27 10:00N 49°51' W 003°13'5 8.8
2017-May-27 09:28N 49°53' W 003°07'4 8.2
2017-May-27 09:00N 49°55' W 003°02'4 7.7
2017-May-27 08:30N 49°57' W 002°57'11010.7
2017-May-26 22:16N 50°28' W 000°12'2 8.4
2017-May-26 22:00N 50°28' W 000°09'4 8.0
2017-May-26 21:30N 50°29' W 000°03'4 7.7
2017-May-26 20:58N 50°31' E 000°04'4 7.9
2017-May-26 20:30N 50°32' E 000°09'4 8.4
2017-May-26 20:00N 50°33' E 000°15'7 9.3
2017-May-26 19:17N 50°35' E 000°25'310.4
2017-May-26 19:00N 50°37' E 000°30'611.2
2017-May-26 18:30N 50°39' E 000°37'611.9
2017-May-26 18:00N 50°43' E 000°45'612.3
2017-May-26 17:30N 50°46' E 000°53'1711.8
2017-May-26 16:04N 50°57' E 001°14'111.0
2017-May-26 16:00N 50°58' E 001°15'510.6
2017-May-26 15:30N 51°01' E 001°21'5 9.8
2017-May-26 15:00N 51°04' E 001°27'8 8.1
2017-May-26 14:00N 51°09' E 001°37'4 7.1
2017-May-26 13:30N 51°12' E 001°41'4 7.3
2017-May-26 13:00N 51°14' E 001°45'4 7.8
2017-May-26 12:30N 51°18' E 001°48'4 8.5
2017-May-26 12:00N 51°22' E 001°50'5 9.3
2017-May-26 11:30N 51°26' E 001°53'5 9.9
2017-May-26 11:00N 51°31' E 001°56'610.8
2017-May-26 10:29N 51°36' E 002°00'42510.4
2017-May-24 17:47N 58°29' E 004°48'310.0
2017-May-24 17:30N 58°32' E 004°50'510.0
2017-May-24 17:00N 58°36' E 004°54'510.1
2017-May-24 16:30N 58°41' E 004°57'510.1
2017-May-24 16:00N 58°46' E 004°59'510.1
2017-May-24 15:30N 58°51' E 005°02'510.3
2017-May-24 15:00N 58°56' E 005°06'510.2
2017-May-24 14:30N 59°01' E 005°09'10 9.8
2017-May-24 13:30N 59°09' E 005°19'510.5
2017-May-24 13:00N 59°14' E 005°20'5 9.9
2017-May-24 12:30N 59°19' E 005°20'0 0.2
2017-May-24 11:58N 59°19' E 005°19'0 0.0
2017-May-24 11:28N 59°19' E 005°19'0 0.0
2017-May-24 10:58N 59°19' E 005°19'0 0.0
2017-May-24 10:28N 59°19' E 005°19'0 0.0
2017-May-24 09:58N 59°19' E 005°19'0 0.0
2017-May-24 09:28N 59°19' E 005°19'0 0.0
2017-May-24 08:58N 59°19' E 005°19'0 0.0
2017-May-24 08:28N 59°19' E 005°19'0 0.0
2017-May-24 07:58N 59°19' E 005°19'0 0.0
2017-May-24 07:28N 59°19' E 005°19'0 0.0
2017-May-24 06:58N 59°19' E 005°19'0 0.0
2017-May-24 06:28N 59°19' E 005°19'1 1.9
2017-May-24 06:00N 59°18' E 005°20'5 9.8
2017-May-24 05:30N 59°13' E 005°21'2 4.8
2017-May-24 05:00N 59°11' E 005°21'3 5.6
2017-May-24 04:30N 59°08' E 005°21'3 5.8
2017-May-24 04:00N 59°05' E 005°21'3 6.1
2017-May-24 03:30N 59°03' E 005°16'3 7.0
2017-May-24 03:00N 59°04' E 005°10'5 9.4
2017-May-24 02:30N 59°08' E 005°06'5 9.1
2017-May-24 02:00N 59°13' E 005°03'5 9.6
2017-May-24 01:30N 59°17' E 005°01'510.2
2017-May-24 01:00N 59°22' E 004°59'510.5
2017-May-24 00:30N 59°27' E 004°56'510.4
2017-May-24 00:00N 59°33' E 004°54'510.1
2017-May-23 23:30N 59°38' E 004°52'5 9.8
2017-May-23 23:00N 59°42' E 004°49'5 9.9
2017-May-23 22:30N 59°47' E 004°46'5 9.9
2017-May-23 22:00N 59°52' E 004°44'510.0
2017-May-23 21:30N 59°57' E 004°42'510.1
2017-May-23 21:00N 60°02' E 004°40'510.1
2017-May-23 20:30N 60°06' E 004°37'510.0
2017-May-23 20:00N 60°11' E 004°34'5 9.8
2017-May-23 19:30N 60°16' E 004°32'5 9.9
2017-May-23 19:00N 60°21' E 004°30'5 9.7
2017-May-23 18:30N 60°26' E 004°28'5 9.8
2017-May-23 18:00N 60°30' E 004°26'5 9.7
2017-May-23 17:30N 60°35' E 004°25'5 9.5
2017-May-23 17:00N 60°40' E 004°25'5 9.1
2017-May-23 16:30N 60°45' E 004°25'4 8.9
2017-May-23 16:00N 60°49' E 004°24'5 9.0
2017-May-23 15:30N 60°53' E 004°25'5 9.2
2017-May-23 15:00N 60°58' E 004°25'4 9.0
2017-May-23 14:30N 61°03' E 004°25'9 9.3
2017-May-23 13:30N 61°12' E 004°25'5 9.6
2017-May-23 13:00N 61°17' E 004°25'5 9.7
2017-May-23 12:30N 61°22' E 004°25'5 9.8
2017-May-23 12:00N 61°27' E 004°25'510.0
2017-May-23 11:30N 61°32' E 004°25'5 9.8
2017-May-23 11:00N 61°36' E 004°25'510.1
2017-May-23 10:30N 61°41' E 004°25'510.0
2017-May-23 10:00N 61°46' E 004°27'510.5
2017-May-23 09:30N 61°51' E 004°32'510.5
2017-May-23 09:00N 61°56' E 004°37'510.4
2017-May-23 08:30N 62°00' E 004°42'510.7
2017-May-23 08:00N 62°05' E 004°47'510.5
2017-May-23 07:30N 62°10' E 004°52'510.4
2017-May-23 07:00N 62°14' E 004°57'510.3
2017-May-23 06:30N 62°19' E 005°04'510.5
2017-May-23 06:00N 62°23' E 005°11'510.5
2017-May-23 05:30N 62°26' E 005°19'510.6
2017-May-23 05:00N 62°30' E 005°27'510.7
2017-May-23 04:30N 62°34' E 005°35'510.8
2017-May-23 04:00N 62°38' E 005°44'510.6
2017-May-23 03:30N 62°41' E 005°52'510.5
2017-May-23 03:00N 62°45' E 006°00'510.4
2017-May-23 02:30N 62°49' E 006°08'510.3
2017-May-23 02:00N 62°52' E 006°17'510.5
2017-May-23 01:30N 62°55' E 006°26'510.7
2017-May-23 01:00N 62°58' E 006°35'611.0
2017-May-23 00:30N 63°02' E 006°45'510.8
2017-May-23 00:00N 63°05' E 006°54'510.7
2017-May-22 23:30N 63°08' E 007°04'510.6
2017-May-22 23:00N 63°11' E 007°14'510.7
2017-May-22 22:30N 63°13' E 007°25'510.5
2017-May-22 22:00N 63°15' E 007°36'5 9.9
2017-May-22 21:30N 63°12' E 007°45'510.2
2017-May-22 21:00N 63°08' E 007°41'510.7
2017-May-22 20:30N 63°02' E 007°41'510.6
2017-May-22 20:00N 62°58' E 007°48'510.6
2017-May-22 19:30N 62°59' E 007°59'510.3
2017-May-22 19:00N 62°55' E 008°08'510.5
2017-May-22 18:30N 62°50' E 008°10'510.7
2017-May-22 18:00N 62°47' E 008°20'510.8
2017-May-22 17:30N 62°44' E 008°29'3 6.5
2017-May-22 16:59N 62°41' E 008°33'0 0.0
2017-May-22 16:29N 62°41' E 008°33'0 0.0
2017-May-22 15:59N 62°41' E 008°33'0 0.0
2017-May-22 15:29N 62°41' E 008°33'0 0.0
2017-May-22 14:59N 62°41' E 008°33'0 0.0
2017-May-22 13:59N 62°41' E 008°33'0 0.0
2017-May-22 13:29N 62°41' E 008°33'0 0.0
2017-May-22 12:59N 62°41' E 008°33'0 0.0
2017-May-22 12:29N 62°41' E 008°33'0 0.0
2017-May-22 11:59N 62°41' E 008°33'0 0.0
2017-May-22 11:29N 62°41' E 008°33'0 0.0
2017-May-22 10:59N 62°41' E 008°33'0 0.0
2017-May-22 10:29N 62°41' E 008°33'0 0.0
2017-May-22 09:59N 62°41' E 008°33'0 0.0
2017-May-22 09:29N 62°41' E 008°33'0 0.0
2017-May-22 08:59N 62°41' E 008°33'0 0.0
2017-May-22 08:29N 62°41' E 008°33'0 0.0
2017-May-22 07:59N 62°41' E 008°33'0 0.0
2017-May-22 07:29N 62°41' E 008°33'0 0.0
2017-May-22 06:59N 62°41' E 008°33'0 0.0
2017-May-22 06:29N 62°41' E 008°33'0 0.0
2017-May-22 05:59N 62°41' E 008°33'0 0.0
2017-May-22 05:29N 62°41' E 008°33'0 0.0
2017-May-22 04:59N 62°41' E 008°33'0 0.0
2017-May-22 04:29N 62°41' E 008°33'0 0.0
2017-May-22 03:59N 62°41' E 008°33'0 0.0
2017-May-22 03:29N 62°41' E 008°33'0 0.0
2017-May-22 02:59N 62°41' E 008°33'0 0.0
2017-May-22 02:29N 62°41' E 008°33'0 0.0
2017-May-22 01:59N 62°41' E 008°33'0 0.0
2017-May-22 01:29N 62°41' E 008°33'0 0.0
2017-May-22 00:59N 62°41' E 008°33'0 0.0
2017-May-22 00:29N 62°41' E 008°33'0 0.0
2017-May-21 23:59N 62°41' E 008°33'0 0.0
2017-May-21 23:29N 62°41' E 008°33'0 0.0
2017-May-21 22:59N 62°41' E 008°33'0 0.0
2017-May-21 22:29N 62°41' E 008°33'0 0.0
2017-May-21 21:59N 62°41' E 008°33'0 0.0
2017-May-21 21:29N 62°41' E 008°33'0 0.0
2017-May-21 20:59N 62°41' E 008°33'0 0.0
2017-May-21 20:29N 62°41' E 008°33'0 0.0
2017-May-21 19:59N 62°41' E 008°33'0 0.0
2017-May-21 19:26N 62°41' E 008°33'0 0.0
2017-May-21 18:59N 62°41' E 008°33'0 0.0
2017-May-21 18:29N 62°41' E 008°33'0 0.0
2017-May-21 17:59N 62°41' E 008°33'0 0.0
2017-May-21 17:29N 62°41' E 008°33'0 0.0
2017-May-21 16:56N 62°41' E 008°33'0 0.0
2017-May-21 16:29N 62°41' E 008°33'0 0.0
2017-May-21 15:59N 62°41' E 008°33'0 0.0
2017-May-21 15:29N 62°41' E 008°33'0 0.0
2017-May-21 14:56N 62°41' E 008°33'0 0.0
2017-May-21 13:59N 62°41' E 008°33'0 0.0
2017-May-21 13:29N 62°41' E 008°33'0 0.0
2017-May-21 13:00N 62°41' E 008°33'3 5.3
2017-May-21 12:30N 62°43' E 008°30'611.4
2017-May-21 12:00N 62°47' E 008°20'611.2
2017-May-21 11:30N 62°50' E 008°10'611.1
2017-May-21 11:00N 62°55' E 008°08'510.9
2017-May-21 10:30N 62°59' E 007°59'510.7
2017-May-21 10:00N 62°58' E 007°47'3 6.1
2017-May-21 09:30N 63°01' E 007°48'0 0.1
2017-May-21 09:00N 63°01' E 007°48'0 0.0
2017-May-21 08:30N 63°01' E 007°48'0 0.0
2017-May-21 08:00N 63°01' E 007°48'0 0.0
2017-May-21 07:30N 63°01' E 007°48'0 0.0
2017-May-21 07:00N 63°01' E 007°48'0 0.0
2017-May-21 06:30N 63°01' E 007°48'0 0.0
2017-May-21 06:00N 63°01' E 007°48'0 0.0
2017-May-21 05:30N 63°01' E 007°48'0 0.0
2017-May-21 05:00N 63°01' E 007°48'0 0.0
2017-May-21 04:30N 63°01' E 007°48'0 0.0
2017-May-21 04:00N 63°01' E 007°48'0 0.0
2017-May-21 03:30N 63°01' E 007°48'0 0.0
2017-May-21 03:00N 63°01' E 007°48'0 0.0
2017-May-21 02:30N 63°01' E 007°48'0 0.0
2017-May-21 02:00N 63°01' E 007°48'0 0.0
2017-May-21 01:30N 63°01' E 007°48'0 0.0
2017-May-21 01:00N 63°01' E 007°48'0 0.0
2017-May-21 00:30N 63°01' E 007°48'0 0.0
2017-May-21 00:00N 63°01' E 007°48'0 0.0
2017-May-20 23:30N 63°01' E 007°48'0 0.0
2017-May-20 23:00N 63°01' E 007°48'0 0.0
2017-May-20 22:30N 63°01' E 007°48'0 0.0
2017-May-20 22:00N 63°01' E 007°48'0 0.0
2017-May-20 21:30N 63°01' E 007°48'0 0.0
2017-May-20 21:00N 63°01' E 007°48'0 0.0
2017-May-20 20:30N 63°01' E 007°48'0 0.2
2017-May-20 20:00N 63°01' E 007°48'0 0.0
2017-May-20 19:30N 63°01' E 007°48'0 0.0
2017-May-20 19:00N 63°01' E 007°48'0 0.0
2017-May-20 18:30N 63°01' E 007°48'0 0.1
2017-May-20 18:00N 63°01' E 007°48'0 0.0
2017-May-20 17:30N 63°01' E 007°48'0 0.0
2017-May-20 17:00N 63°01' E 007°48'0 0.1
2017-May-20 16:30N 63°01' E 007°48'0 0.0
2017-May-20 16:00N 63°01' E 007°48'0 0.0
2017-May-20 15:30N 63°01' E 007°48'0 0.0
2017-May-20 15:00N 63°01' E 007°48'0 0.0
2017-May-20 14:00N 63°01' E 007°48'0 0.0
2017-May-20 13:29N 63°01' E 007°48'0 0.0
2017-May-20 12:59N 63°01' E 007°48'0 0.0
2017-May-20 12:29N 63°01' E 007°48'0 0.0
2017-May-20 11:59N 63°01' E 007°48'0 0.0
2017-May-20 11:29N 63°01' E 007°48'0 0.0
2017-May-20 10:59N 63°01' E 007°48'0 0.0
2017-May-20 10:29N 63°01' E 007°48'0 0.0
2017-May-20 09:59N 63°01' E 007°48'0 0.0
2017-May-20 09:29N 63°01' E 007°48'0 0.0
2017-May-20 08:59N 63°01' E 007°48'0 0.0
2017-May-20 08:29N 63°01' E 007°48'0 0.0
2017-May-20 07:59N 63°01' E 007°48'0 0.0
2017-May-20 07:29N 63°01' E 007°48'0 0.0
2017-May-20 06:59N 63°01' E 007°48'0 0.0
2017-May-20 06:29N 63°01' E 007°48'0 0.0
2017-May-20 05:59N 63°01' E 007°48'0 0.0
2017-May-20 05:29N 63°01' E 007°48'0 0.0
2017-May-20 04:59N 63°01' E 007°48'0 0.0
2017-May-20 04:29N 63°01' E 007°48'0 0.0
2017-May-20 03:59N 63°01' E 007°48'0 0.0
2017-May-20 03:29N 63°01' E 007°48'0 0.0
2017-May-20 02:59N 63°01' E 007°48'0 0.0
2017-May-20 02:29N 63°01' E 007°48'0 0.0
2017-May-20 01:59N 63°01' E 007°48'0 0.0
2017-May-20 01:29N 63°01' E 007°48'0 0.0
2017-May-20 00:59N 63°01' E 007°48'0 0.0
2017-May-20 00:29N 63°01' E 007°48'0 0.0
2017-May-19 23:59N 63°01' E 007°48'0 0.0
2017-May-19 23:29N 63°01' E 007°48'0 0.0
2017-May-19 22:59N 63°01' E 007°48'0 0.0
2017-May-19 22:29N 63°01' E 007°48'0 0.0
2017-May-19 21:59N 63°01' E 007°48'0 0.0
2017-May-19 21:29N 63°01' E 007°48'0 0.0
2017-May-19 20:59N 63°01' E 007°48'0 0.0
2017-May-19 20:29N 63°01' E 007°48'0 0.0
2017-May-19 19:59N 63°01' E 007°48'0 0.0
2017-May-19 19:29N 63°01' E 007°48'0 0.0
2017-May-19 18:59N 63°01' E 007°48'0 0.0
2017-May-19 18:29N 63°01' E 007°48'0 0.0
2017-May-19 17:59N 63°01' E 007°48'0 0.0
2017-May-19 17:29N 63°01' E 007°48'0 0.0
2017-May-19 16:59N 63°01' E 007°48'0 0.0
2017-May-19 16:29N 63°01' E 007°48'0 0.0
2017-May-19 15:59N 63°01' E 007°48'0 0.0
2017-May-19 15:29N 63°01' E 007°48'0 0.0
2017-May-19 14:59N 63°01' E 007°48'2 1.6
2017-May-19 14:00N 63°02' E 007°51'510.5
2017-May-19 13:30N 63°07' E 007°54'510.9
2017-May-19 13:00N 63°11' E 007°47'510.0
2017-May-19 12:30N 63°14' E 007°39'4 8.0
2017-May-19 12:00N 63°14' E 007°30'2 3.9
2017-May-19 11:30N 63°13' E 007°26'3 6.5
2017-May-19 11:00N 63°12' E 007°20'3 6.8
2017-May-19 10:30N 63°10' E 007°13'4 8.8
2017-May-19 10:00N 63°08' E 007°05'5 9.3
2017-May-19 09:30N 63°06' E 006°55'5 9.3
2017-May-19 09:00N 63°03' E 006°47'510.0
2017-May-19 08:30N 63°01' E 006°37'510.6
2017-May-19 08:00N 62°58' E 006°27'510.7
2017-May-19 07:30N 62°55' E 006°17'510.7
2017-May-19 07:00N 62°52' E 006°09'611.1
2017-May-19 06:30N 62°48' E 006°01'611.1
2017-May-19 06:00N 62°44' E 005°52'511.0
2017-May-19 05:30N 62°40' E 005°44'610.8
2017-May-19 05:00N 62°36' E 005°35'510.9
2017-May-19 04:29N 62°32' E 005°27'511.1
2017-May-19 04:00N 62°28' E 005°19'611.2
2017-May-19 03:30N 62°24' E 005°11'511.2
2017-May-19 03:00N 62°20' E 005°02'610.9
2017-May-19 02:30N 62°16' E 004°54'510.8
2017-May-19 01:59N 62°12' E 004°45'511.1
2017-May-19 01:30N 62°08' E 004°37'510.8
2017-May-19 01:00N 62°04' E 004°29'  

Dump ship's entire track history